createdAt,value
2022-08-27T00:02:18.547Z,100125.91
2022-08-27T00:04:47.085Z,100125.48
2022-08-27T00:07:15.167Z,100121.13
2022-08-27T00:09:44.002Z,100118.49
2022-08-27T00:12:13.583Z,100121.21
2022-08-27T00:14:41.479Z,100128.10
2022-08-27T00:17:09.499Z,100128.97
2022-08-27T00:19:37.732Z,100129.79
2022-08-27T00:22:07.859Z,100124.10
2022-08-27T00:24:38.394Z,100121.33
2022-08-27T00:27:17.795Z,100119.56
2022-08-27T00:29:47.651Z,100124.94
2022-08-27T00:32:16.812Z,100134.70
2022-08-27T00:34:44.708Z,100136.75
2022-08-27T00:37:13.072Z,100135.86
2022-08-27T00:39:41.018Z,100134.36
2022-08-27T00:42:08.904Z,100132.11
2022-08-27T00:44:38.862Z,100130.85
2022-08-27T00:47:17.043Z,100134.98
2022-08-27T00:49:56.246Z,100135.44
2022-08-27T00:52:28.192Z,100135.55
2022-08-27T00:55:11.962Z,100138.96
2022-08-27T00:57:43.390Z,100138.16
2022-08-27T01:00:17.684Z,100135.80
2022-08-27T01:02:47.553Z,100139.26
2022-08-27T01:05:25.489Z,100139.09
2022-08-27T01:08:01.956Z,100136.30
2022-08-27T01:10:30.923Z,100137.52
2022-08-27T01:12:58.919Z,100138.71
2022-08-27T01:15:29.779Z,100139.13
2022-08-27T01:17:59.660Z,100139.83
2022-08-27T01:20:45.172Z,100137.75
2022-08-27T01:23:33.021Z,100135.58
2022-08-27T01:26:03.449Z,100133.53
2022-08-27T01:28:37.456Z,100133.53
2022-08-27T01:31:09.071Z,100136.08
2022-08-27T01:33:37.160Z,100141.79
2022-08-27T01:36:07.027Z,100145.20
2022-08-27T01:38:35.093Z,100144.29
2022-08-27T01:41:04.711Z,100140.05
2022-08-27T01:43:33.732Z,100136.92
2022-08-27T01:46:01.654Z,100133.59
2022-08-27T01:48:29.536Z,100131.47
2022-08-27T01:50:57.441Z,100130.92
2022-08-27T01:53:27.251Z,100130.18
2022-08-27T01:55:55.860Z,100129.27
2022-08-27T01:58:29.110Z,100129.94
2022-08-27T02:01:06.338Z,100129.88
2022-08-27T02:03:36.952Z,100132.55
2022-08-27T02:06:09.225Z,100128.30
2022-08-27T02:08:38.503Z,100130.13
2022-08-27T02:11:08.496Z,100123.48
2022-08-27T02:13:37.122Z,100122.96
2022-08-27T02:16:05.276Z,100120.67
2022-08-27T02:18:37.363Z,100121.04
2022-08-27T02:21:06.053Z,100118.59
2022-08-27T02:23:34.019Z,100123.59
2022-08-27T02:26:02.390Z,100125.00
2022-08-27T02:28:30.271Z,100125.95
2022-08-27T02:30:58.162Z,100132.75
2022-08-27T02:33:26.603Z,100129.80
2022-08-27T02:35:55.007Z,100129.02
2022-08-27T02:38:23.505Z,100127.84
2022-08-27T02:40:54.071Z,100124.77
2022-08-27T02:43:25.253Z,100127.82
2022-08-27T02:45:53.871Z,100120.90
2022-08-27T02:48:23.174Z,100123.30
2022-08-27T02:50:51.895Z,100117.90
2022-08-27T02:53:19.776Z,100119.27
2022-08-27T02:55:48.059Z,100117.16
2022-08-27T02:58:16.866Z,100112.29
2022-08-27T03:00:45.726Z,100112.20
2022-08-27T03:03:13.643Z,100108.88
2022-08-27T03:05:41.500Z,100099.40
2022-08-27T03:08:09.873Z,100101.35
2022-08-27T03:10:37.897Z,100097.61
2022-08-27T03:13:05.743Z,100095.70
2022-08-27T03:15:33.551Z,100096.43
2022-08-27T03:18:20.025Z,100092.14
2022-08-27T03:20:55.646Z,100097.12
2022-08-27T03:23:29.280Z,100100.61
2022-08-27T03:26:00.526Z,100099.92
2022-08-27T03:28:33.406Z,100098.17
2022-08-27T03:31:06.119Z,100099.63
2022-08-27T03:33:39.735Z,100101.76
2022-08-27T03:36:09.286Z,100099.27
2022-08-27T03:38:38.063Z,100096.69
2022-08-27T03:41:06.560Z,100095.73
2022-08-27T03:43:34.711Z,100096.94
2022-08-27T03:46:02.901Z,100093.98
2022-08-27T03:48:32.447Z,100096.98
2022-08-27T03:51:10.081Z,100098.30
2022-08-27T03:53:40.916Z,100097.63
2022-08-27T03:56:09.423Z,100105.58
2022-08-27T03:58:38.998Z,100106.05
2022-08-27T04:01:08.718Z,100108.89
2022-08-27T04:03:37.220Z,100107.89
2022-08-27T04:06:05.490Z,100107.55
2022-08-27T04:08:33.402Z,100109.14
2022-08-27T04:11:06.655Z,100110.04
2022-08-27T04:13:34.681Z,100115.03
2022-08-27T04:16:05.601Z,100117.33
2022-08-27T04:18:34.263Z,100123.48
2022-08-27T04:21:11.423Z,100121.41
2022-08-27T04:23:41.496Z,100124.24
2022-08-27T04:26:11.356Z,100128.52
2022-08-27T04:28:39.380Z,100129.23
2022-08-27T04:31:12.927Z,100133.44
2022-08-27T04:33:50.805Z,100134.33
2022-08-27T04:36:20.981Z,100136.90
2022-08-27T04:38:49.818Z,100138.77
2022-08-27T04:41:21.555Z,100136.39
2022-08-27T04:43:56.354Z,100138.14
2022-08-27T04:46:29.545Z,100139.73
2022-08-27T04:49:00.175Z,100135.23
2022-08-27T04:51:29.801Z,100138.55
2022-08-27T04:54:00.934Z,100137.70
2022-08-27T04:56:30.664Z,100139.56
2022-08-27T04:58:58.600Z,100139.85
2022-08-27T05:01:29.713Z,100139.25
2022-08-27T05:04:01.174Z,100136.33
2022-08-27T05:06:29.682Z,100136.77
2022-08-27T05:08:57.551Z,100136.42
2022-08-27T05:11:32.249Z,100140.02
2022-08-27T05:14:06.547Z,100139.64
2022-08-27T05:16:36.453Z,100138.45
2022-08-27T05:19:11.127Z,100137.65
2022-08-27T05:21:47.650Z,100134.07
2022-08-27T05:24:17.606Z,100135.48
2022-08-27T05:26:46.121Z,100142.48
2022-08-27T05:29:14.730Z,100143.42
2022-08-27T05:31:43.511Z,100141.64
2022-08-27T05:34:15.424Z,100135.70
2022-08-27T05:36:48.588Z,100140.69
2022-08-27T05:39:17.603Z,100138.69
2022-08-27T05:41:45.568Z,100136.90
2022-08-27T05:47:03.804Z,100136.34
2022-08-27T05:49:32.079Z,100133.79
2022-08-27T05:51:59.981Z,100135.79
2022-08-27T05:54:27.863Z,100139.02
2022-08-27T05:56:55.979Z,100142.47
2022-08-27T05:59:42.289Z,100140.33
2022-08-27T06:02:11.066Z,100141.17
2022-08-27T06:04:39.051Z,100137.73
2022-08-27T06:07:09.576Z,100139.38
2022-08-27T06:09:38.987Z,100140.66
2022-08-27T06:12:08.563Z,100143.70
2022-08-27T06:14:38.494Z,100143.17
2022-08-27T06:17:06.549Z,100136.67
2022-08-27T06:19:36.453Z,100131.76
2022-08-27T06:22:10.001Z,100137.02
2022-08-27T06:24:43.483Z,100137.59
2022-08-27T06:27:16.338Z,100137.64
2022-08-27T06:29:45.330Z,100136.34
2022-08-27T06:32:14.907Z,100133.16
2022-08-27T06:34:43.060Z,100135.20
2022-08-27T06:37:11.079Z,100142.55
2022-08-27T06:39:39.851Z,100144.75
2022-08-27T06:42:12.409Z,100141.36
2022-08-27T06:44:41.858Z,100137.70
2022-08-27T06:47:10.331Z,100141.04
2022-08-27T06:49:43.848Z,100138.95
2022-08-27T06:52:15.567Z,100136.19
2022-08-27T06:54:45.081Z,100133.16
2022-08-27T06:57:12.958Z,100134.25
2022-08-27T06:59:41.200Z,100138.36
2022-08-27T07:02:09.473Z,100140.92
2022-08-27T07:04:37.405Z,100138.58
2022-08-27T07:07:05.857Z,100145.37
2022-08-27T07:09:34.694Z,100149.23
2022-08-27T07:12:03.158Z,100157.14
2022-08-27T07:14:37.518Z,100174.52
2022-08-27T07:17:10.858Z,100161.98
2022-08-27T07:19:44.298Z,100167.11
2022-08-27T07:22:13.146Z,100162.56
2022-08-27T07:24:41.117Z,100165.38
2022-08-27T07:27:09.347Z,100174.42
2022-08-27T07:29:37.953Z,100172.31
2022-08-27T07:32:05.990Z,100170.73
2022-08-27T07:34:34.027Z,100165.38
2022-08-27T07:37:01.971Z,100160.39
2022-08-27T07:39:29.890Z,100161.46
2022-08-27T07:42:36.316Z,100157.95
2022-08-27T07:45:04.695Z,100159.95
2022-08-27T07:47:35.400Z,100162.55
2022-08-27T07:50:03.734Z,100165.41
2022-08-27T07:52:31.694Z,100168.07
2022-08-27T07:54:59.535Z,100171.55
2022-08-27T07:57:27.721Z,100169.91
2022-08-27T07:59:55.630Z,100165.33
2022-08-27T08:02:23.754Z,100170.66
2022-08-27T08:04:52.009Z,100170.89
2022-08-27T08:07:19.915Z,100168.90
2022-08-27T08:09:47.808Z,100166.52
2022-08-27T08:12:15.710Z,100163.90
2022-08-27T08:14:43.700Z,100169.59
2022-08-27T08:17:14.205Z,100176.64
2022-08-27T08:19:47.451Z,100173.73
2022-08-27T08:22:25.172Z,100178.12
2022-08-27T08:24:54.450Z,100177.06
2022-08-27T08:27:22.327Z,100178.32
2022-08-27T08:29:51.614Z,100178.87
2022-08-27T08:32:21.397Z,100183.13
2022-08-27T08:34:49.873Z,100182.36
2022-08-27T08:37:18.130Z,100182.33
2022-08-27T08:39:46.011Z,100178.54
2022-08-27T08:42:45.035Z,100180.77
2022-08-27T08:45:26.271Z,100173.06
2022-08-27T08:48:12.755Z,100169.86
2022-08-27T08:51:05.415Z,100168.57
2022-08-27T08:53:49.070Z,100172.45
2022-08-27T08:56:43.740Z,100167.80
2022-08-27T08:59:24.655Z,100168.70
2022-08-27T09:01:52.533Z,100168.42
2022-08-27T09:04:23.888Z,100167.69
2022-08-27T09:07:33.228Z,100166.61
2022-08-27T09:10:04.645Z,100164.66
2022-08-27T09:12:33.264Z,100164.39
2022-08-27T09:15:15.168Z,100163.52
2022-08-27T09:17:45.579Z,100158.89
2022-08-27T09:20:19.779Z,100156.42
2022-08-27T09:22:57.379Z,100159.08
2022-08-27T09:25:34.175Z,100156.64
2022-08-27T09:28:31.955Z,100157.75
2022-08-27T09:31:07.410Z,100151.39
2022-08-27T09:33:44.639Z,100143.87
2022-08-27T09:36:25.383Z,100147.60
2022-08-27T09:39:04.111Z,100144.02
2022-08-27T09:41:50.955Z,100145.30
2022-08-27T09:44:20.897Z,100142.53
2022-08-27T09:46:54.507Z,100141.05
2022-08-27T09:49:26.018Z,100143.83
2022-08-27T09:51:55.683Z,100138.71
2022-08-27T09:54:36.507Z,100136.09
2022-08-27T09:57:07.467Z,100132.66
2022-08-27T09:59:54.586Z,100131.38
2022-08-27T10:02:26.530Z,100135.63
2022-08-27T10:05:01.246Z,100133.85
2022-08-27T10:07:38.591Z,100128.29
2022-08-27T10:10:18.024Z,100128.25
2022-08-27T10:13:10.285Z,100128.35
2022-08-27T10:15:49.659Z,100127.52
2022-08-27T10:18:33.927Z,100126.83
2022-08-27T10:21:24.024Z,100127.50
2022-08-27T10:24:28.583Z,100127.31
2022-08-27T10:27:46.255Z,100124.91
2022-08-27T10:30:32.941Z,100120.98
2022-08-27T10:33:23.367Z,100117.20
2022-08-27T10:36:10.610Z,100109.56
2022-08-27T10:38:50.286Z,100110.59
2022-08-27T10:41:43.857Z,100105.79
2022-08-27T10:44:44.509Z,100110.08
2022-08-27T10:48:02.379Z,100105.53
2022-08-27T10:50:45.625Z,100102.63
2022-08-27T10:53:37.097Z,100103.63
2022-08-27T10:57:14.466Z,100106.21
2022-08-27T11:00:07.513Z,100103.23
2022-08-27T11:02:44.293Z,100103.64
2022-08-27T11:05:39.388Z,100100.88
2022-08-27T11:08:42.990Z,100101.09
2022-08-27T11:12:03.367Z,100101.02
2022-08-27T11:14:33.007Z,100101.59
2022-08-27T11:17:40.943Z,100102.83
2022-08-27T11:20:34.479Z,100100.08
2022-08-27T11:23:17.481Z,100102.39
2022-08-27T11:26:02.283Z,100100.70
2022-08-27T11:28:48.874Z,100102.39
2022-08-27T11:31:49.406Z,100092.36
2022-08-27T11:34:31.434Z,100097.59
2022-08-27T11:37:46.845Z,100092.58
2022-08-27T11:40:59.860Z,100089.71
2022-08-27T11:43:35.193Z,100089.21
2022-08-27T11:46:08.797Z,100086.61
2022-08-27T11:48:42.870Z,100085.95
2022-08-27T11:51:35.095Z,100087.64
2022-08-27T11:54:10.918Z,100090.38
2022-08-27T11:56:43.135Z,100084.90
2022-08-27T11:59:26.587Z,100082.79
2022-08-27T12:01:59.692Z,100081.34
2022-08-27T12:04:30.602Z,100077.95
2022-08-27T12:07:18.599Z,100074.98
2022-08-27T12:10:19.726Z,100071.11
2022-08-27T12:13:04.198Z,100070.11
2022-08-27T12:16:20.930Z,100063.97
2022-08-27T12:19:28.819Z,100060.98
2022-08-27T12:22:23.082Z,100057.23
2022-08-27T12:24:59.032Z,100054.48
2022-08-27T12:27:32.356Z,100050.30
2022-08-27T12:30:27.984Z,100052.06
2022-08-27T12:32:59.562Z,100057.18
2022-08-27T12:35:43.590Z,100051.79
2022-08-27T12:38:34.882Z,100048.19
2022-08-27T12:41:08.951Z,100046.91
2022-08-27T12:43:43.315Z,100042.60
2022-08-27T12:46:19.059Z,100044.44
2022-08-27T12:49:35.838Z,100041.48
2022-08-27T12:51:48.517Z,100043.66
2022-08-27T12:55:18.908Z,100038.81
2022-08-27T12:57:58.559Z,100037.31
2022-08-27T13:00:35.989Z,100032.06
2022-08-27T13:03:35.512Z,100031.51
2022-08-27T13:06:34.387Z,100030.58
2022-08-27T13:09:07.167Z,100025.56
2022-08-27T13:11:45.656Z,100024.19
2022-08-27T13:14:19.954Z,100025.34
2022-08-27T13:16:54.155Z,100026.88
2022-08-27T13:19:35.748Z,100022.56
2022-08-27T13:22:06.048Z,100021.64
2022-08-27T13:24:45.965Z,100024.01
2022-08-27T13:27:14.137Z,100020.61
2022-08-27T13:29:43.519Z,100023.91
2022-08-27T13:32:14.819Z,100020.35
2022-08-27T13:34:42.728Z,100025.85
2022-08-27T13:37:40.014Z,100020.48
2022-08-27T13:40:10.430Z,100017.30
2022-08-27T13:42:44.668Z,100018.35
2022-08-27T13:45:12.620Z,100016.88
2022-08-27T13:47:47.562Z,100016.02
2022-08-27T13:50:28.614Z,100012.17
2022-08-27T13:53:27.599Z,100008.67
2022-08-27T13:55:58.383Z,100006.96
2022-08-27T13:58:34.335Z,100005.48
2022-08-27T14:01:25.976Z,100003.36
2022-08-27T14:04:02.665Z,100007.02
2022-08-27T14:06:46.302Z,100010.61
2022-08-27T14:09:26.369Z,100005.91
2022-08-27T14:12:08.267Z,100002.05
2022-08-27T14:14:41.167Z,100004.90
2022-08-27T14:17:29.725Z,99999.77
2022-08-27T14:20:04.492Z,99996.27
2022-08-27T14:22:36.523Z,99999.45
2022-08-27T14:25:05.195Z,99997.56
2022-08-27T14:27:37.278Z,99995.74
2022-08-27T14:30:09.827Z,99996.35
2022-08-27T14:32:38.896Z,99993.00
2022-08-27T14:35:07.576Z,99993.67
2022-08-27T14:37:35.587Z,99989.94
2022-08-27T14:40:04.934Z,99993.33
2022-08-27T14:42:34.199Z,99994.13
2022-08-27T14:45:02.156Z,99994.62
2022-08-27T14:47:33.750Z,99994.52
2022-08-27T14:50:02.099Z,99990.05
2022-08-27T14:52:30.072Z,99989.16
2022-08-27T14:54:58.007Z,99991.63
2022-08-27T14:57:26.072Z,99990.58
2022-08-27T14:59:54.077Z,99989.61
2022-08-27T15:02:23.279Z,99993.30
2022-08-27T15:04:51.379Z,99992.69
2022-08-27T15:07:19.878Z,99993.29
2022-08-27T15:09:50.720Z,99992.52
2022-08-27T15:12:26.375Z,99990.89
2022-08-27T15:14:56.139Z,99996.65
2022-08-27T15:17:34.652Z,99994.29
2022-08-27T15:20:19.023Z,99998.66
2022-08-27T15:22:50.844Z,100000.77
2022-08-27T15:25:20.550Z,100002.23
2022-08-27T15:27:49.583Z,100003.36
2022-08-27T15:30:24.289Z,100003.96
2022-08-27T15:32:52.181Z,100008.05
2022-08-27T15:35:26.548Z,100005.42
2022-08-27T15:37:58.423Z,100001.00
2022-08-27T15:40:28.760Z,100003.23
2022-08-27T15:43:05.328Z,100008.62
2022-08-27T15:45:33.706Z,100009.89
2022-08-27T15:48:02.324Z,100009.00
2022-08-27T15:50:31.679Z,100014.27
2022-08-27T15:53:05.000Z,100013.39
2022-08-27T15:55:38.530Z,100015.06
2022-08-27T15:58:06.971Z,100013.55
2022-08-27T16:00:38.053Z,100012.16
2022-08-27T16:03:11.369Z,100002.73
2022-08-27T16:05:42.326Z,100002.20
2022-08-27T16:08:11.684Z,99999.15
2022-08-27T16:10:40.384Z,99998.81
2022-08-27T16:13:08.334Z,100000.92
2022-08-27T16:15:39.567Z,99996.67
2022-08-27T16:18:08.448Z,99996.74
2022-08-27T16:20:37.247Z,99994.16
2022-08-27T16:23:05.484Z,99995.86
2022-08-27T16:25:33.389Z,99995.89
2022-08-27T16:28:01.776Z,99992.20
2022-08-27T16:30:30.377Z,99989.48
2022-08-27T16:32:58.714Z,99989.83
2022-08-27T16:35:26.654Z,99986.90
2022-08-27T16:37:54.512Z,99988.73
2022-08-27T16:40:22.668Z,99990.53
2022-08-27T16:42:52.251Z,99986.55
2022-08-27T16:45:23.190Z,99990.79
2022-08-27T16:48:10.619Z,99989.66
2022-08-27T16:50:40.537Z,99991.66
2022-08-27T16:53:18.603Z,99992.85
2022-08-27T16:55:47.455Z,99992.33
2022-08-27T16:58:24.923Z,99996.92
2022-08-27T17:00:56.982Z,99998.94
2022-08-27T17:03:25.739Z,100000.02
2022-08-27T17:05:54.066Z,100003.36
2022-08-27T17:08:26.657Z,100009.21
2022-08-27T17:10:56.619Z,100013.88
2022-08-27T17:13:29.854Z,100014.33
2022-08-27T17:15:58.223Z,100024.26
2022-08-27T17:18:27.795Z,100028.88
2022-08-27T17:20:59.189Z,100033.77
2022-08-27T17:23:47.430Z,100038.73
2022-08-27T17:26:16.632Z,100041.63
2022-08-27T17:28:45.654Z,100045.66
2022-08-27T17:31:28.399Z,100048.52
2022-08-27T17:33:59.642Z,100051.23
2022-08-27T17:36:30.375Z,100047.09
2022-08-27T17:38:58.903Z,100055.26
2022-08-27T17:41:44.000Z,100053.60
2022-08-27T17:44:27.874Z,100062.36
2022-08-27T17:47:00.511Z,100065.08
2022-08-27T17:49:31.057Z,100068.84
2022-08-27T17:52:04.244Z,100075.20
2022-08-27T17:54:43.547Z,100074.36
2022-08-27T17:57:40.278Z,100070.40
2022-08-27T18:00:13.187Z,100077.61
2022-08-27T18:02:46.205Z,100074.86
2022-08-27T18:05:16.216Z,100076.07
2022-08-27T18:07:45.172Z,100076.44
2022-08-27T18:10:20.394Z,100077.41
2022-08-27T18:12:48.964Z,100081.59
2022-08-27T18:15:28.575Z,100083.94
2022-08-27T18:17:57.846Z,100083.80
2022-08-27T18:20:29.252Z,100082.95
2022-08-27T18:22:57.663Z,100088.79
2022-08-27T18:25:33.837Z,100087.20
2022-08-27T18:28:08.207Z,100089.26
2022-08-27T18:30:39.525Z,100089.04
2022-08-27T18:33:08.809Z,100086.08
2022-08-27T18:35:38.468Z,100085.52
2022-08-27T18:38:06.634Z,100087.09
2022-08-27T18:40:48.830Z,100089.22
2022-08-27T18:43:19.202Z,100096.60
2022-08-27T18:45:47.530Z,100091.11
2022-08-27T18:48:21.357Z,100095.84
2022-08-27T18:50:58.561Z,100097.73
2022-08-27T18:53:31.748Z,100097.72
2022-08-27T18:56:01.400Z,100099.98
2022-08-27T18:58:29.256Z,100103.31
2022-08-27T19:01:01.784Z,100102.94
2022-08-27T19:03:34.603Z,100106.73
2022-08-27T19:06:07.904Z,100108.27
2022-08-27T19:08:40.111Z,100108.80
2022-08-27T19:11:08.455Z,100106.55
2022-08-27T19:13:36.518Z,100113.74
2022-08-27T19:16:09.464Z,100114.27
2022-08-27T19:18:38.262Z,100115.32
2022-08-27T19:21:07.360Z,100119.94
2022-08-27T19:23:36.819Z,100124.25
2022-08-27T19:26:06.283Z,100124.78
2022-08-27T19:28:40.627Z,100126.88
2022-08-27T19:31:08.722Z,100121.84
2022-08-27T19:33:37.105Z,100124.27
2022-08-27T19:36:12.522Z,100119.33
2022-08-27T19:38:44.822Z,100119.63
2022-08-27T19:41:14.458Z,100128.92
2022-08-27T19:43:45.853Z,100124.73
2022-08-27T19:46:18.331Z,100127.60
2022-08-27T19:48:46.553Z,100122.67
2022-08-27T19:51:14.750Z,100124.20
2022-08-27T19:53:43.038Z,100126.94
2022-08-27T19:56:13.768Z,100132.74
2022-08-27T19:58:43.541Z,100130.04
2022-08-27T20:01:14.811Z,100130.46
2022-08-27T20:03:42.797Z,100131.17
2022-08-27T20:06:10.889Z,100136.64
2022-08-27T20:08:39.355Z,100137.45
2022-08-27T20:11:07.239Z,100139.61
2022-08-27T20:13:35.420Z,100136.14
2022-08-27T20:16:06.496Z,100130.27
2022-08-27T20:18:41.519Z,100127.70
2022-08-27T20:21:09.420Z,100123.59
2022-08-27T20:23:37.404Z,100125.12
2022-08-27T20:26:05.711Z,100127.86
2022-08-27T20:28:39.226Z,100126.91
2022-08-27T20:31:08.491Z,100131.91
2022-08-27T20:33:36.442Z,100130.04
2022-08-27T20:36:07.895Z,100127.95
2022-08-27T20:38:36.455Z,100128.67
2022-08-27T20:41:06.315Z,100130.60
2022-08-27T20:43:35.611Z,100134.35
2022-08-27T20:46:03.998Z,100132.51
2022-08-27T20:48:32.773Z,100131.91
2022-08-27T20:51:01.377Z,100131.64
2022-08-27T20:53:29.249Z,100130.02
2022-08-27T20:55:57.232Z,100134.25
2022-08-27T20:58:44.698Z,100137.75
2022-08-27T21:01:12.631Z,100136.10
2022-08-27T21:03:40.735Z,100131.85
2022-08-27T21:06:08.974Z,100132.45
2022-08-27T21:08:38.997Z,100129.63
2022-08-27T21:11:16.031Z,100129.71
2022-08-27T21:13:55.641Z,100134.97
2022-08-27T21:16:25.924Z,100133.16
2022-08-27T21:18:53.990Z,100132.53
2022-08-27T21:21:22.359Z,100132.80
2022-08-27T21:23:50.248Z,100130.80
2022-08-27T21:26:19.656Z,100134.17
2022-08-27T21:28:47.843Z,100136.04
2022-08-27T21:31:15.802Z,100136.31
2022-08-27T21:33:43.688Z,100137.96
2022-08-27T21:36:12.504Z,100142.50
2022-08-27T21:38:41.091Z,100142.83
2022-08-27T21:41:09.216Z,100138.90
2022-08-27T21:43:37.769Z,100140.55
2022-08-27T21:46:06.098Z,100138.18
2022-08-27T21:48:34.066Z,100136.30
2022-08-27T21:51:16.315Z,100136.58
2022-08-27T21:53:52.533Z,100135.40
2022-08-27T21:56:20.403Z,100131.47
2022-08-27T21:58:48.431Z,100128.02
2022-08-27T22:01:16.581Z,100124.36
2022-08-27T22:03:46.989Z,100127.85
2022-08-27T22:06:15.600Z,100123.76
2022-08-27T22:08:43.712Z,100125.33
2022-08-27T22:11:12.669Z,100128.52
2022-08-27T22:13:41.303Z,100130.16
2022-08-27T22:16:09.296Z,100125.81
2022-08-27T22:18:38.597Z,100125.95
2022-08-27T22:21:06.807Z,100124.14
2022-08-27T22:23:34.905Z,100122.56
2022-08-27T22:26:04.236Z,100115.95
2022-08-27T22:28:32.276Z,100116.97
2022-08-27T22:31:00.304Z,100115.23
2022-08-27T22:33:28.236Z,100112.70
2022-08-27T22:35:56.252Z,100110.84
2022-08-27T22:38:24.356Z,100113.47
2022-08-27T22:40:54.013Z,100109.30
2022-08-27T22:43:21.975Z,100113.48
2022-08-27T22:45:49.854Z,100105.96
2022-08-27T22:48:17.863Z,100109.41
2022-08-27T22:50:45.688Z,100107.88
2022-08-27T22:53:13.566Z,100106.30
2022-08-27T22:55:41.439Z,100108.30
2022-08-27T22:58:09.445Z,100107.29
2022-08-27T23:00:39.402Z,100108.82
2022-08-27T23:03:10.170Z,100110.08
2022-08-27T23:05:41.364Z,100109.20
2022-08-27T23:08:12.874Z,100108.33
2022-08-27T23:10:43.227Z,100108.72
2022-08-27T23:13:12.280Z,100107.30
2022-08-27T23:15:41.314Z,100110.48
2022-08-27T23:18:09.400Z,100108.45
2022-08-27T23:20:37.330Z,100106.31
2022-08-27T23:23:07.829Z,100106.92
2022-08-27T23:25:54.637Z,100106.60
2022-08-27T23:28:23.482Z,100108.78
2022-08-27T23:30:52.214Z,100110.10
2022-08-27T23:33:20.664Z,100113.91
2022-08-27T23:35:51.453Z,100117.15
2022-08-27T23:38:21.624Z,100118.28
2022-08-27T23:40:50.989Z,100118.61
2022-08-27T23:43:20.551Z,100121.39
2022-08-27T23:45:49.607Z,100120.30
2022-08-27T23:48:18.818Z,100122.74
2022-08-27T23:50:46.713Z,100124.23
2022-08-27T23:53:15.095Z,100126.43
2022-08-27T23:55:43.399Z,100124.58
2022-08-27T23:58:11.657Z,100124.86
